Portada
METAR-TAF:

METAR-TAF

Aeroports :

Taixkent, Uzbekistan

latitud: 41-16N, longitud: 069-16E, altitud: 489 m

Observació

L'informe es va fer fa 45 minuts, a les 07:30 UTC
Vent 4 kt del Oest/Nord-Oest, variant entre Sud/Sud-Oest i Nord
Temperatura 22°C
Humitat 35%
Pressió 1020 hPa
Visibilitat: 7000 m

METAR: UTTT 190730Z 29004KT 210V350 7000 NSC 22/06 Q1020 R08R/CLRD70 NOSIG

Hora: 13:15 (08:15 UTC)

Pronòstic

L'informe es va fer fa 3 hores i 15 minuts, a les 05:00 UTC
Pronòstic vàlid del 19 a les 06 UTC al 20 a les 06 UTC
Vent 12 kt del Est/Nord-Est
Visibilitat: 7000 m

TAF: UTTT 190500Z 1906/2006 07012KT 7000 NSC

Observacions i pronòstics meteorològics de més de 4000 aeroports (METAR i TAF).

Les estacions disponibles són els punts grocs i vermells al mapa.

Posi el ratolí al punt desitjat per veure el nom de l'estació.

Feu clic per veure les observacions i els pronòstics meteorològics.

Per canviar el mapa: feu clic els botons verds amb una creu de color negre per apropar; al botó verd amb un guió per allunyar la imatge; o en les fletxes verdes per a mapes adjacents.


METAR-TAF: